createdAt,value
2023-01-19T00:01:06.742Z,1.12
2023-01-19T00:03:35.332Z,0.65
2023-01-19T00:06:07.179Z,0.30
2023-01-19T00:08:35.897Z,0.30
2023-01-19T00:11:03.853Z,0.32
2023-01-19T00:13:31.462Z,0.20
2023-01-19T00:15:59.255Z,0.30
2023-01-19T00:18:26.749Z,0.30
2023-01-19T00:20:54.260Z,0.50
2023-01-19T00:23:22.103Z,0.60
2023-01-19T00:25:51.229Z,0.30
2023-01-19T00:28:19.162Z,0.40
2023-01-19T00:30:47.007Z,0.40
2023-01-19T00:33:15.213Z,0.20
2023-01-19T00:35:43.284Z,0.30
2023-01-19T00:38:14.320Z,0.30
2023-01-19T00:40:41.926Z,0.40
2023-01-19T00:43:09.539Z,0.50
2023-01-19T00:45:37.325Z,0.40
2023-01-19T00:48:05.036Z,0.62
2023-01-19T00:50:33.007Z,1.42
2023-01-19T00:53:01.936Z,0.80
2023-01-19T00:55:32.438Z,1.00
2023-01-19T00:58:00.131Z,1.07
2023-01-19T01:00:27.969Z,0.73
2023-01-19T01:02:55.848Z,0.50
2023-01-19T01:05:23.587Z,0.73
2023-01-19T01:07:51.477Z,0.62
2023-01-19T01:10:29.619Z,0.60
2023-01-19T01:12:58.681Z,0.47
2023-01-19T01:15:28.319Z,0.50
2023-01-19T01:17:56.396Z,0.57
2023-01-19T01:20:28.202Z,0.40
2023-01-19T01:22:56.979Z,0.40
2023-01-19T01:25:27.396Z,0.50
2023-01-19T01:27:55.130Z,0.37
2023-01-19T01:30:23.024Z,0.57
2023-01-19T01:32:50.911Z,0.40
2023-01-19T01:35:18.503Z,0.40
2023-01-19T01:37:46.003Z,0.43
2023-01-19T01:40:17.894Z,0.57
2023-01-19T01:42:45.774Z,0.40
2023-01-19T01:45:30.835Z,0.30
2023-01-19T01:48:01.606Z,0.20
2023-01-19T01:50:33.396Z,0.40
2023-01-19T01:53:14.219Z,0.32
2023-01-19T01:55:46.863Z,0.43
2023-01-19T01:58:16.597Z,0.30
2023-01-19T02:01:03.024Z,0.50
2023-01-19T02:03:32.566Z,0.30
2023-01-19T02:06:04.569Z,0.20
2023-01-19T02:09:15.983Z,0.47
2023-01-19T02:12:02.196Z,0.43
2023-01-19T02:14:29.964Z,0.40
2023-01-19T02:16:57.872Z,0.30
2023-01-19T02:19:33.027Z,0.40
2023-01-19T02:22:38.562Z,0.40
2023-01-19T02:25:07.389Z,0.40
2023-01-19T02:27:37.104Z,0.17
2023-01-19T02:30:05.311Z,0.30
2023-01-19T02:32:32.789Z,0.20
2023-01-19T02:35:00.614Z,0.35
2023-01-19T02:37:32.685Z,0.30
2023-01-19T02:40:02.758Z,0.10
2023-01-19T02:42:35.955Z,0.20
2023-01-19T02:45:06.958Z,0.20
2023-01-19T02:47:49.360Z,0.20
2023-01-19T02:50:42.036Z,0.10
2023-01-19T02:53:23.569Z,0.20
2023-01-19T02:56:02.785Z,0.20
2023-01-19T02:59:00.689Z,0.20
2023-01-19T03:02:04.292Z,0.20
2023-01-19T03:04:37.535Z,0.30
2023-01-19T03:07:24.901Z,0.40
2023-01-19T03:10:07.126Z,0.30
2023-01-19T03:13:33.310Z,0.30
2023-01-19T03:16:22.870Z,0.35
2023-01-19T03:18:58.381Z,0.30
2023-01-19T03:21:28.325Z,0.30
2023-01-19T03:24:03.053Z,0.30
2023-01-19T03:26:36.304Z,0.28
2023-01-19T03:29:07.063Z,0.28
2023-01-19T03:31:35.166Z,0.37
2023-01-19T03:34:07.915Z,0.60
2023-01-19T03:36:57.877Z,0.35
2023-01-19T03:39:27.647Z,0.20
2023-01-19T03:41:59.179Z,0.40
2023-01-19T03:44:29.232Z,0.40
2023-01-19T03:46:59.197Z,0.30
2023-01-19T03:49:27.296Z,0.40
2023-01-19T03:51:59.316Z,0.40
2023-01-19T03:54:27.843Z,0.30
2023-01-19T03:56:55.431Z,0.50
2023-01-19T03:59:22.998Z,0.40
2023-01-19T04:01:50.808Z,0.40
2023-01-19T04:04:18.660Z,0.60
2023-01-19T04:06:46.232Z,0.40
2023-01-19T04:09:13.789Z,0.50
2023-01-19T04:11:41.590Z,0.70
2023-01-19T04:14:09.107Z,0.50
2023-01-19T04:16:36.625Z,0.60
2023-01-19T04:19:04.476Z,0.50
2023-01-19T04:21:31.980Z,0.40
2023-01-19T04:23:59.692Z,0.40
2023-01-19T04:26:27.518Z,0.60
2023-01-19T04:28:54.984Z,0.40
2023-01-19T04:31:23.454Z,0.80
2023-01-19T04:33:51.327Z,0.50
2023-01-19T04:36:18.847Z,0.60
2023-01-19T04:38:47.180Z,0.40
2023-01-19T04:41:15.084Z,0.45
2023-01-19T04:43:42.641Z,0.52
2023-01-19T04:46:10.194Z,0.62
2023-01-19T04:48:38.494Z,0.40
2023-01-19T04:51:06.882Z,0.57
2023-01-19T04:53:34.891Z,0.65
2023-01-19T04:56:02.778Z,0.60
2023-01-19T04:58:30.294Z,0.62
2023-01-19T05:00:57.818Z,0.40
2023-01-19T05:03:26.653Z,0.70
2023-01-19T05:05:54.343Z,0.65
2023-01-19T05:08:21.820Z,0.40
2023-01-19T05:10:50.211Z,0.32
2023-01-19T05:13:17.761Z,0.40
2023-01-19T05:15:45.312Z,0.43
2023-01-19T05:18:13.226Z,0.20
2023-01-19T05:20:41.306Z,0.20
2023-01-19T05:23:08.795Z,0.20
2023-01-19T05:25:36.570Z,0.20
2023-01-19T05:28:04.171Z,0.30
2023-01-19T05:30:31.685Z,0.20
2023-01-19T05:32:59.803Z,0.10
2023-01-19T05:35:35.718Z,0.20
2023-01-19T05:38:04.608Z,0.20
2023-01-19T05:40:32.483Z,0.10
2023-01-19T05:43:01.353Z,0.10
2023-01-19T05:45:29.505Z,0.00
2023-01-19T05:47:57.094Z,0.10
2023-01-19T05:50:25.369Z,0.27
2023-01-19T05:52:53.553Z,0.30
2023-01-19T05:55:21.587Z,0.13
2023-01-19T05:57:49.167Z,0.30
2023-01-19T06:00:17.346Z,0.20
2023-01-19T06:02:46.671Z,0.40
2023-01-19T06:05:14.230Z,0.30
2023-01-19T06:07:43.098Z,0.20
2023-01-19T06:10:11.499Z,0.40
2023-01-19T06:12:42.127Z,0.30
2023-01-19T06:15:10.417Z,0.20
2023-01-19T06:17:38.301Z,0.10
2023-01-19T06:20:07.086Z,0.20
2023-01-19T06:22:34.661Z,0.30
2023-01-19T06:25:02.663Z,0.20
2023-01-19T06:27:30.634Z,0.20
2023-01-19T06:29:58.204Z,0.40
2023-01-19T06:32:25.960Z,0.13
2023-01-19T06:34:54.195Z,0.28
2023-01-19T06:37:22.016Z,0.20
2023-01-19T06:39:49.787Z,0.30
2023-01-19T06:42:17.299Z,0.30
2023-01-19T06:44:47.618Z,0.20
2023-01-19T06:47:16.529Z,0.40
2023-01-19T06:49:44.209Z,0.30
2023-01-19T06:52:15.890Z,0.20
2023-01-19T06:54:45.638Z,0.30
2023-01-19T06:57:14.039Z,0.30
2023-01-19T06:59:41.809Z,0.20
2023-01-19T07:02:26.280Z,0.22
2023-01-19T07:04:54.794Z,0.23
2023-01-19T07:07:22.689Z,0.30
2023-01-19T07:09:50.219Z,0.20
2023-01-19T07:12:22.534Z,0.30
2023-01-19T07:14:50.148Z,0.20
2023-01-19T07:17:17.744Z,0.30
2023-01-19T07:19:46.504Z,0.10
2023-01-19T07:22:14.136Z,0.10
2023-01-19T07:24:41.679Z,0.10
2023-01-19T07:27:11.582Z,0.22
2023-01-19T07:29:39.718Z,0.60
2023-01-19T07:32:07.666Z,0.20
2023-01-19T07:34:36.539Z,0.10
2023-01-19T07:37:04.550Z,0.20
2023-01-19T07:39:32.235Z,0.10
2023-01-19T07:42:00.413Z,0.10
2023-01-19T07:44:28.159Z,0.10
2023-01-19T07:46:55.918Z,0.20
2023-01-19T07:49:24.612Z,0.20
2023-01-19T07:51:52.214Z,0.10
2023-01-19T07:54:20.861Z,0.10
2023-01-19T07:56:48.668Z,0.10
2023-01-19T07:59:16.153Z,0.10
2023-01-19T08:01:44.624Z,0.10
2023-01-19T08:04:12.706Z,0.10
2023-01-19T08:06:41.146Z,0.10
2023-01-19T08:09:08.997Z,0.10
2023-01-19T08:11:37.087Z,0.10
2023-01-19T08:14:07.752Z,0.10
2023-01-19T08:16:36.630Z,0.10
2023-01-19T08:19:04.585Z,0.10
2023-01-19T08:21:33.402Z,0.10
2023-01-19T08:24:01.108Z,0.10
2023-01-19T08:26:32.542Z,0.20
2023-01-19T08:29:03.112Z,0.20
2023-01-19T08:31:31.387Z,0.20
2023-01-19T08:33:59.314Z,0.20
2023-01-19T08:36:27.211Z,0.20
2023-01-19T08:38:55.000Z,0.40
2023-01-19T08:41:22.588Z,0.40
2023-01-19T08:43:50.071Z,0.50
2023-01-19T08:46:20.853Z,0.32
2023-01-19T08:48:49.460Z,0.50
2023-01-19T08:51:17.580Z,0.60
2023-01-19T08:53:45.469Z,0.40
2023-01-19T08:56:14.462Z,0.43
2023-01-19T08:58:44.336Z,0.60
2023-01-19T09:01:22.271Z,0.80
2023-01-19T09:03:50.112Z,0.82
2023-01-19T09:06:19.459Z,1.33
2023-01-19T09:08:47.424Z,1.10
2023-01-19T09:11:17.471Z,1.80
2023-01-19T09:13:45.550Z,1.70
2023-01-19T09:16:14.954Z,2.22
2023-01-19T09:18:42.699Z,2.87
2023-01-19T09:21:10.716Z,3.00
2023-01-19T09:23:38.464Z,3.20
2023-01-19T09:26:06.822Z,3.42
2023-01-19T09:28:34.738Z,3.50
2023-01-19T09:31:07.726Z,3.42
2023-01-19T09:33:36.115Z,3.27
2023-01-19T09:36:03.838Z,3.12
2023-01-19T09:38:34.473Z,3.08
2023-01-19T09:41:02.359Z,2.72
2023-01-19T09:43:49.010Z,2.30
2023-01-19T09:46:23.035Z,3.00
2023-01-19T09:48:50.500Z,2.53
2023-01-19T09:51:29.609Z,2.00
2023-01-19T09:54:15.832Z,2.33
2023-01-19T09:56:45.647Z,2.55
2023-01-19T09:59:26.416Z,2.30
2023-01-19T10:02:14.862Z,2.17
2023-01-19T10:04:49.069Z,2.22
2023-01-19T10:07:44.673Z,1.55
2023-01-19T10:10:32.851Z,1.40
2023-01-19T10:13:19.169Z,1.43
2023-01-19T10:16:09.734Z,1.50
2023-01-19T10:18:51.696Z,1.00
2023-01-19T10:21:23.200Z,1.35
2023-01-19T10:23:58.329Z,1.00
2023-01-19T10:26:33.996Z,1.40
2023-01-19T10:29:18.501Z,0.70
2023-01-19T10:31:47.101Z,0.60
2023-01-19T10:34:21.504Z,0.90
2023-01-19T10:36:59.118Z,0.70
2023-01-19T10:39:26.726Z,1.00
2023-01-19T10:41:54.619Z,0.77
2023-01-19T10:44:27.619Z,0.90
2023-01-19T10:46:59.113Z,1.00
2023-01-19T10:49:34.155Z,0.80
2023-01-19T10:52:03.489Z,0.90
2023-01-19T10:54:32.016Z,1.10
2023-01-19T10:57:03.741Z,1.58
2023-01-19T10:59:38.326Z,1.02
2023-01-19T11:02:18.682Z,1.15
2023-01-19T11:04:52.933Z,1.13
2023-01-19T11:07:27.321Z,1.30
2023-01-19T11:10:17.419Z,1.35
2023-01-19T11:13:12.370Z,1.10
2023-01-19T11:15:44.787Z,1.25
2023-01-19T11:18:28.929Z,1.30
2023-01-19T11:21:01.640Z,1.40
2023-01-19T11:23:51.323Z,3.28
2023-01-19T11:26:41.228Z,2.70
2023-01-19T11:29:26.160Z,4.37
2023-01-19T11:31:57.754Z,1.60
2023-01-19T11:34:34.203Z,1.60
2023-01-19T11:37:05.198Z,2.08
2023-01-19T11:39:46.546Z,1.70
2023-01-19T11:42:16.197Z,2.05
2023-01-19T11:45:06.942Z,1.83
2023-01-19T11:47:43.537Z,2.22
2023-01-19T11:50:13.897Z,2.50
2023-01-19T11:53:07.180Z,2.95
2023-01-19T11:55:46.248Z,3.30
2023-01-19T11:58:18.525Z,3.37
2023-01-19T12:00:58.484Z,2.97
2023-01-19T12:03:39.079Z,3.70
2023-01-19T12:06:20.871Z,3.62
2023-01-19T12:08:54.878Z,3.33
2023-01-19T12:11:35.451Z,3.90
2023-01-19T12:14:04.715Z,4.37
2023-01-19T12:16:35.900Z,4.00
2023-01-19T12:19:11.299Z,4.57
2023-01-19T12:21:38.761Z,4.60
2023-01-19T12:24:12.543Z,5.83
2023-01-19T12:26:51.372Z,4.35
2023-01-19T12:29:22.428Z,4.28
2023-01-19T12:32:37.554Z,4.55
2023-01-19T12:35:05.787Z,4.72
2023-01-19T12:37:43.961Z,5.40
2023-01-19T12:40:26.521Z,5.35
2023-01-19T12:43:05.706Z,4.40
2023-01-19T12:45:39.799Z,4.68
2023-01-19T12:48:24.524Z,4.37
2023-01-19T12:50:52.569Z,4.47
2023-01-19T12:53:22.607Z,4.97
2023-01-19T12:56:02.179Z,4.12
2023-01-19T12:58:30.350Z,4.20
2023-01-19T13:01:21.154Z,4.55
2023-01-19T13:04:09.346Z,3.93
2023-01-19T13:07:05.880Z,5.00
2023-01-19T13:09:35.764Z,4.20
2023-01-19T13:12:15.283Z,4.30
2023-01-19T13:14:43.543Z,3.83
2023-01-19T13:17:25.970Z,4.07
2023-01-19T13:20:04.522Z,4.20
2023-01-19T13:22:50.150Z,4.37
2023-01-19T13:25:34.180Z,3.67
2023-01-19T13:28:07.116Z,3.80
2023-01-19T13:30:36.671Z,3.60
2023-01-19T13:33:13.676Z,3.87
2023-01-19T13:35:50.568Z,3.50
2023-01-19T13:38:18.837Z,3.30
2023-01-19T13:40:47.265Z,3.65
2023-01-19T13:43:31.979Z,3.20
2023-01-19T13:46:00.568Z,3.28
2023-01-19T13:48:28.597Z,3.20
2023-01-19T13:51:01.791Z,3.53
2023-01-19T13:53:30.580Z,3.08
2023-01-19T13:56:13.370Z,3.40
2023-01-19T13:58:41.222Z,2.90
2023-01-19T14:01:21.519Z,3.12
2023-01-19T14:03:52.469Z,3.15
2023-01-19T14:06:31.662Z,3.03
2023-01-19T14:09:16.978Z,3.10
2023-01-19T14:12:05.463Z,2.97
2023-01-19T14:14:33.994Z,2.70
2023-01-19T14:17:01.904Z,2.83
2023-01-19T14:19:29.650Z,2.87
2023-01-19T14:22:04.952Z,2.90
2023-01-19T14:24:33.285Z,2.55
2023-01-19T14:27:18.306Z,2.17
2023-01-19T14:29:47.624Z,3.08
2023-01-19T14:32:21.458Z,2.62
2023-01-19T14:34:54.183Z,3.10
2023-01-19T14:37:29.481Z,2.80
2023-01-19T14:40:11.018Z,2.65
2023-01-19T14:42:52.741Z,2.75
2023-01-19T14:45:37.458Z,2.97
2023-01-19T14:48:17.726Z,2.80
2023-01-19T14:51:01.912Z,2.78
2023-01-19T14:53:38.449Z,2.70
2023-01-19T14:56:07.707Z,2.40
2023-01-19T14:58:35.990Z,2.72
2023-01-19T15:01:04.710Z,2.97
2023-01-19T15:03:44.049Z,3.10
2023-01-19T15:06:18.853Z,2.95
2023-01-19T15:08:48.918Z,3.15
2023-01-19T15:11:21.347Z,3.08
2023-01-19T15:13:49.659Z,3.00
2023-01-19T15:16:18.298Z,3.03
2023-01-19T15:18:45.911Z,2.97
2023-01-19T15:21:21.763Z,2.80
2023-01-19T15:23:50.092Z,3.12
2023-01-19T15:26:19.789Z,2.50
2023-01-19T15:28:51.360Z,3.22
2023-01-19T15:31:24.918Z,5.30
2023-01-19T15:33:52.435Z,9.65
2023-01-19T15:36:22.236Z,12.02
2023-01-19T15:38:51.165Z,2.80
2023-01-19T15:41:32.262Z,2.80
2023-01-19T15:44:00.159Z,3.33
2023-01-19T15:46:27.801Z,2.95
2023-01-19T15:48:55.307Z,2.65
2023-01-19T15:51:25.924Z,2.67
2023-01-19T15:53:55.236Z,3.05
2023-01-19T15:56:26.261Z,3.30
2023-01-19T15:58:55.017Z,3.08
2023-01-19T16:01:31.371Z,2.95
2023-01-19T16:04:01.530Z,3.03
2023-01-19T16:06:30.854Z,2.78
2023-01-19T16:09:01.887Z,2.47
2023-01-19T16:11:32.161Z,3.35
2023-01-19T16:13:59.936Z,3.00
2023-01-19T16:16:28.415Z,3.70
2023-01-19T16:18:57.002Z,3.25
2023-01-19T16:21:24.915Z,3.25
2023-01-19T16:23:52.966Z,3.12
2023-01-19T16:26:30.043Z,3.20
2023-01-19T16:29:02.915Z,3.43
2023-01-19T16:31:30.816Z,3.78
2023-01-19T16:33:58.903Z,4.22
2023-01-19T16:36:31.861Z,4.22
2023-01-19T16:39:01.384Z,3.90
2023-01-19T16:41:29.356Z,3.60
2023-01-19T16:43:58.210Z,3.80
2023-01-19T16:46:32.605Z,4.32
2023-01-19T16:49:11.887Z,4.43
2023-01-19T16:51:39.717Z,4.70
2023-01-19T16:54:07.986Z,4.23
2023-01-19T16:56:35.604Z,4.12
2023-01-19T16:59:03.362Z,3.40
2023-01-19T17:01:31.061Z,4.10
2023-01-19T17:03:58.635Z,4.32
2023-01-19T17:06:26.682Z,3.50
2023-01-19T17:08:54.547Z,3.90
2023-01-19T17:11:24.988Z,4.15
2023-01-19T17:13:55.521Z,4.10
2023-01-19T17:16:25.111Z,3.62
2023-01-19T17:18:53.796Z,4.30
2023-01-19T17:21:21.439Z,4.05
2023-01-19T17:23:51.818Z,4.05
2023-01-19T17:26:20.795Z,4.28
2023-01-19T17:28:49.748Z,3.83
2023-01-19T17:31:20.073Z,4.40
2023-01-19T17:33:50.510Z,4.05
2023-01-19T17:36:22.350Z,4.12
2023-01-19T17:38:51.286Z,4.07
2023-01-19T17:41:30.799Z,4.28
2023-01-19T17:44:00.216Z,4.17
2023-01-19T17:46:29.498Z,3.65
2023-01-19T17:48:59.875Z,4.37
2023-01-19T17:51:29.584Z,4.10
2023-01-19T17:53:58.042Z,4.80
2023-01-19T17:56:30.065Z,4.20
2023-01-19T17:58:58.293Z,5.05
2023-01-19T18:01:28.238Z,3.72
2023-01-19T18:03:56.831Z,4.07
2023-01-19T18:06:24.335Z,4.37
2023-01-19T18:08:52.611Z,4.43
2023-01-19T18:11:21.822Z,4.05
2023-01-19T18:13:50.647Z,4.72
2023-01-19T18:16:22.165Z,4.18
2023-01-19T18:18:50.941Z,4.20
2023-01-19T18:21:20.327Z,4.50
2023-01-19T18:23:49.104Z,4.35
2023-01-19T18:26:20.202Z,4.32
2023-01-19T18:28:48.722Z,4.25
2023-01-19T18:31:19.040Z,4.80
2023-01-19T18:33:49.794Z,4.13
2023-01-19T18:36:18.768Z,4.37
2023-01-19T18:38:46.947Z,3.97
2023-01-19T18:41:17.985Z,6.72
2023-01-19T18:43:46.637Z,7.75
2023-01-19T18:46:15.336Z,7.40
2023-01-19T18:48:44.754Z,9.13
2023-01-19T18:51:15.519Z,6.70
2023-01-19T18:53:43.778Z,6.15
2023-01-19T18:56:12.801Z,6.97
2023-01-19T18:58:40.465Z,5.83
2023-01-19T19:01:25.829Z,6.07
2023-01-19T19:03:54.804Z,5.35
2023-01-19T19:06:24.059Z,4.32
2023-01-19T19:08:52.568Z,4.40
2023-01-19T19:11:22.033Z,5.17
2023-01-19T19:13:58.332Z,4.50
2023-01-19T19:16:26.622Z,4.93
2023-01-19T19:18:54.770Z,4.45
2023-01-19T19:21:25.313Z,6.00
2023-01-19T19:23:58.005Z,5.00
2023-01-19T19:26:28.170Z,5.07
2023-01-19T19:28:55.873Z,4.80
2023-01-19T19:31:26.146Z,4.82
2023-01-19T19:33:55.920Z,5.00
2023-01-19T19:36:25.365Z,4.53
2023-01-19T19:38:53.296Z,4.18
2023-01-19T19:41:23.928Z,4.57
2023-01-19T19:43:51.374Z,4.05
2023-01-19T19:46:20.653Z,4.65
2023-01-19T19:48:48.940Z,4.10
2023-01-19T19:51:25.719Z,3.72
2023-01-19T19:53:59.457Z,3.28
2023-01-19T19:56:29.433Z,3.15
2023-01-19T19:58:59.278Z,4.12
2023-01-19T20:01:32.546Z,4.07
2023-01-19T20:04:06.600Z,3.78
2023-01-19T20:06:38.749Z,3.45
2023-01-19T20:09:09.106Z,3.78
2023-01-19T20:11:36.666Z,3.23
2023-01-19T20:14:08.540Z,3.53
2023-01-19T20:16:36.602Z,3.65
2023-01-19T20:19:04.442Z,3.17
2023-01-19T20:21:35.654Z,3.80
2023-01-19T20:24:08.804Z,3.07
2023-01-19T20:26:40.584Z,3.12
2023-01-19T20:29:10.380Z,3.60
2023-01-19T20:31:42.004Z,3.03
2023-01-19T20:34:11.337Z,2.90
2023-01-19T20:36:39.497Z,3.17
2023-01-19T20:39:11.236Z,2.78
2023-01-19T20:41:43.771Z,3.47
2023-01-19T20:44:19.248Z,3.47
2023-01-19T20:46:47.293Z,3.08
2023-01-19T20:49:14.949Z,3.37
2023-01-19T20:51:45.258Z,3.30
2023-01-19T20:54:15.022Z,3.35
2023-01-19T20:56:42.751Z,3.60
2023-01-19T20:59:11.554Z,3.30
2023-01-19T21:01:40.373Z,3.50
2023-01-19T21:04:08.776Z,3.83
2023-01-19T21:06:37.284Z,4.07
2023-01-19T21:09:05.240Z,3.90
2023-01-19T21:11:33.106Z,3.45
2023-01-19T21:14:00.937Z,3.60
2023-01-19T21:16:31.767Z,4.05
2023-01-19T21:18:59.494Z,3.80
2023-01-19T21:21:31.717Z,4.37
2023-01-19T21:24:01.598Z,4.22
2023-01-19T21:26:33.659Z,3.60
2023-01-19T21:29:02.973Z,3.78
2023-01-19T21:31:31.021Z,3.28
2023-01-19T21:33:59.231Z,3.28
2023-01-19T21:36:27.218Z,3.95
2023-01-19T21:39:00.390Z,3.90
2023-01-19T21:41:30.191Z,4.05
2023-01-19T21:43:58.701Z,3.42
2023-01-19T21:46:29.285Z,3.10
2023-01-19T21:48:58.822Z,3.83
2023-01-19T21:51:27.097Z,4.07
2023-01-19T21:53:59.754Z,4.20
2023-01-19T21:56:28.787Z,3.25
2023-01-19T21:58:57.837Z,3.10
2023-01-19T22:01:25.562Z,2.97
2023-01-19T22:03:55.689Z,3.77
2023-01-19T22:06:24.754Z,3.40
2023-01-19T22:08:52.986Z,2.55
2023-01-19T22:11:21.721Z,2.80
2023-01-19T22:13:49.496Z,2.95
2023-01-19T22:16:19.383Z,2.73
2023-01-19T22:18:57.550Z,2.70
2023-01-19T22:21:38.034Z,3.00
2023-01-19T22:24:06.314Z,2.50
2023-01-19T22:26:34.645Z,3.10
2023-01-19T22:29:03.303Z,2.43
2023-01-19T22:31:32.165Z,2.95
2023-01-19T22:33:59.781Z,3.28
2023-01-19T22:36:29.804Z,2.75
2023-01-19T22:39:00.289Z,2.53
2023-01-19T22:41:32.986Z,3.03
2023-01-19T22:44:10.325Z,3.42
2023-01-19T22:46:38.215Z,3.95
2023-01-19T22:49:10.499Z,3.70
2023-01-19T22:51:38.295Z,4.35
2023-01-19T22:54:06.693Z,4.43
2023-01-19T22:56:36.201Z,4.57
2023-01-19T22:59:04.926Z,5.37
2023-01-19T23:01:36.542Z,4.43
2023-01-19T23:04:05.592Z,4.60
2023-01-19T23:06:35.849Z,3.00
2023-01-19T23:09:10.744Z,3.90
2023-01-19T23:11:41.910Z,4.05
2023-01-19T23:14:14.156Z,3.40
2023-01-19T23:16:42.538Z,3.75
2023-01-19T23:19:11.878Z,4.30
2023-01-19T23:21:40.286Z,3.83
2023-01-19T23:24:09.114Z,3.35
2023-01-19T23:26:39.979Z,3.75
2023-01-19T23:29:12.149Z,4.68
2023-01-19T23:31:43.624Z,4.57
2023-01-19T23:34:12.422Z,4.10
2023-01-19T23:36:41.635Z,3.72
2023-01-19T23:39:15.139Z,3.58
2023-01-19T23:41:43.195Z,4.28
2023-01-19T23:44:10.821Z,3.57
2023-01-19T23:46:38.892Z,3.83
2023-01-19T23:49:06.706Z,4.15
2023-01-19T23:51:34.999Z,3.80
2023-01-19T23:54:02.867Z,4.72
2023-01-19T23:56:36.441Z,3.37
2023-01-19T23:59:07.111Z,3.97
